Time;durP1;ratioP1;P1;durP2;ratioP2;P2;SDS_P1;SDS_P2;PMS_P1;PMS_P2;Temp;Humidity;BMP_temperature;BMP_pressure;BME280_temperature;BME280_humidity;BME280_pressure;Samples;Min_cycle;Max_cycle;Signal;HPM_P1;HPM_P2
2022/01/08 00:01:09;;;;;;;17.90;11.45;;;;;;;3.90;61.19;101409.84;5026172;28;20049;-73
2022/01/08 00:03:36;;;;;;;18.88;12.07;;;;;;;3.85;61.19;101416.84;5040158;28;20041;-76
2022/01/08 00:06:03;;;;;;;19.98;11.38;;;;;;;3.82;61.38;101422.09;5030072;28;20559;-72
2022/01/08 00:08:31;;;;;;;19.45;12.02;;;;;;;3.79;61.29;101416.09;5029267;28;20050;-75
2022/01/08 00:10:58;;;;;;;19.50;11.73;;;;;;;3.76;61.40;101412.66;5028496;28;20049;-77
2022/01/08 00:13:25;;;;;;;18.75;11.70;;;;;;;3.75;61.42;101405.75;5029316;28;20049;-72
2022/01/08 00:15:52;;;;;;;19.38;12.27;;;;;;;3.78;61.21;101415.22;5028582;28;20148;-74
2022/01/08 00:18:18;;;;;;;20.85;11.80;;;;;;;3.78;61.18;101412.63;5029215;28;20270;-73
2022/01/08 00:20:45;;;;;;;20.83;11.93;;;;;;;3.75;61.10;101413.56;5028638;28;20041;-73
2022/01/08 00:23:12;;;;;;;20.25;11.80;;;;;;;3.69;61.35;101411.06;5029182;28;20084;-74
2022/01/08 00:25:38;;;;;;;17.98;11.35;;;;;;;3.69;61.43;101399.84;5028481;28;20049;-72
2022/01/08 00:28:05;;;;;;;21.77;11.70;;;;;;;3.70;61.28;101396.34;5028857;28;20046;-76
2022/01/08 00:30:32;;;;;;;20.48;12.15;;;;;;;3.72;61.09;101392.84;5028204;28;20049;-72
2022/01/08 00:32:59;;;;;;;18.98;11.35;;;;;;;3.71;61.31;101393.72;5028859;28;20053;-72
2022/01/08 00:35:27;;;;;;;21.48;12.27;;;;;;;3.70;61.05;101391.16;5028714;28;20415;-74
2022/01/08 00:37:54;;;;;;;18.15;10.95;;;;;;;3.69;61.30;101385.09;5028769;28;20103;-74
2022/01/08 00:40:21;;;;;;;20.27;12.25;;;;;;;3.68;61.27;101393.78;5028746;28;20053;-73
2022/01/08 00:42:48;;;;;;;19.27;11.88;;;;;;;3.66;61.44;101389.53;5026709;28;20103;-74
2022/01/08 00:45:14;;;;;;;17.70;11.95;;;;;;;3.65;61.48;101387.78;5028016;28;20046;-72
2022/01/08 00:47:41;;;;;;;19.17;11.25;;;;;;;3.66;61.45;101386.91;5028511;28;20060;-74
2022/01/08 00:50:12;;;;;;;17.75;12.15;;;;;;;3.63;61.71;101386.97;5036035;28;20049;-70
2022/01/08 00:52:40;;;;;;;20.05;12.70;;;;;;;3.66;61.64;101392.97;5033830;28;20520;-75
2022/01/08 00:55:08;;;;;;;18.83;12.07;;;;;;;3.64;61.87;101392.13;5032055;28;20049;-74
2022/01/08 00:57:35;;;;;;;19.90;11.18;;;;;;;3.58;61.94;101398.28;5032009;28;20112;-72
2022/01/08 01:00:05;;;;;;;18.08;11.30;;;;;;;3.54;62.02;101390.56;5029985;28;20573;-73
2022/01/08 01:02:32;;;;;;;19.45;12.35;;;;;;;3.47;62.08;101389.81;5032046;28;20049;-74
2022/01/08 01:07:34;;;;;;;22.48;12.30;;;;;;;3.40;61.99;101399.44;5060525;22;19933;-59
2022/01/08 01:10:01;;;;;;;23.17;12.68;;;;;;;3.41;61.95;101400.28;5012760;28;20053;-59
2022/01/08 01:12:28;;;;;;;19.42;11.80;;;;;;;3.40;61.94;101389.06;5029320;28;20045;-60
2022/01/08 01:15:08;;;;;;;20.75;11.85;;;;;;;3.38;62.09;101398.59;5031671;28;20049;-59
2022/01/08 01:17:35;;;;;;;17.70;11.65;;;;;;;3.36;62.01;101389.13;5031682;28;20100;-60
2022/01/08 01:20:03;;;;;;;18.65;11.57;;;;;;;3.36;61.94;101383.94;5031726;28;20041;-59
2022/01/08 01:22:40;;;;;;;19.50;12.18;;;;;;;3.33;61.84;101384.84;5031823;28;20056;-59
2022/01/08 01:25:10;;;;;;;19.65;12.10;;;;;;;3.27;62.02;101379.75;5031449;28;20045;-61
2022/01/08 01:28:00;;;;;;;22.95;12.90;;;;;;;3.26;61.93;101380.63;5030372;28;20462;-59
2022/01/08 01:30:52;;;;;;;19.52;13.27;;;;;;;3.23;61.84;101375.50;5031732;28;20045;-59
2022/01/08 01:49:21;;;;;;;17.45;12.38;;;;;;;3.21;62.20;101359.09;5031126;28;20450;-59
2022/01/08 01:51:48;;;;;;;17.52;11.30;;;;;;;3.17;62.41;101360.03;5031366;28;20058;-59
2022/01/08 01:54:14;;;;;;;23.58;13.48;;;;;;;3.22;62.31;101356.47;5031352;28;20065;-58
2022/01/08 01:56:41;;;;;;;19.50;11.88;;;;;;;3.24;61.91;101354.72;5031563;28;20046;-60
2022/01/08 01:59:08;;;;;;;18.98;11.23;;;;;;;3.27;62.30;101352.06;5031508;28;20056;-59
2022/01/08 02:01:35;;;;;;;18.95;11.70;;;;;;;3.25;61.75;101338.28;5018819;28;20045;-59
2022/01/08 02:04:01;;;;;;;17.45;11.70;;;;;;;3.18;62.16;101335.81;5031174;28;20487;-59
2022/01/08 02:06:28;;;;;;;21.17;11.57;;;;;;;3.12;62.25;101333.34;5030599;28;20045;-59
2022/01/08 02:08:55;;;;;;;19.80;11.45;;;;;;;3.09;62.18;101319.53;5031266;28;20060;-59
2022/01/08 02:11:21;;;;;;;16.50;10.60;;;;;;;3.09;62.23;101319.53;5031966;28;20049;-58
2022/01/08 02:13:50;;;;;;;18.45;11.18;;;;;;;3.10;62.15;101315.22;5034784;28;20056;-59
2022/01/08 02:16:17;;;;;;;17.50;11.10;;;;;;;3.06;62.25;101309.22;5034677;28;20053;-58
2022/01/08 02:18:47;;;;;;;15.77;10.52;;;;;;;2.98;62.22;101300.69;5033744;28;20096;-59
2022/01/08 02:21:15;;;;;;;18.63;10.60;;;;;;;2.94;62.34;101301.63;5034730;28;20053;-60
2022/01/08 02:23:43;;;;;;;18.13;10.55;;;;;;;2.92;62.54;101303.38;5034552;28;20483;-58
2022/01/08 02:26:11;;;;;;;17.40;11.07;;;;;;;2.94;62.15;101302.47;5034550;28;20055;-59
2022/01/08 02:28:39;;;;;;;18.63;11.32;;;;;;;2.93;62.17;101293.00;5034654;28;20494;-59
2022/01/08 02:31:07;;;;;;;17.15;10.40;;;;;;;2.93;62.23;101299.91;5034433;28;20518;-60
2022/01/08 02:33:36;;;;;;;16.50;11.30;;;;;;;2.90;62.43;101285.25;5033246;28;20499;-59
2022/01/08 02:36:07;;;;;;;20.85;11.07;;;;;;;2.90;62.68;101279.22;5034198;28;20107;-59
2022/01/08 02:38:34;;;;;;;16.25;10.85;;;;;;;2.90;62.71;101289.59;5034451;28;20049;-59
2022/01/08 02:41:03;;;;;;;16.45;10.88;;;;;;;2.93;62.33;101279.16;5034244;28;20071;-59
2022/01/08 02:43:33;;;;;;;17.55;10.27;;;;;;;2.92;62.43;101275.72;5034476;28;20415;-58
2022/01/08 02:46:01;;;;;;;16.77;10.20;;;;;;;2.92;62.47;101273.13;5034257;28;20045;-58
2022/01/08 02:48:27;;;;;;;16.38;9.65;;;;;;;2.90;62.44;101266.28;5033734;28;20414;-59
2022/01/08 02:50:54;;;;;;;20.13;11.18;;;;;;;2.85;62.48;101262.91;5033657;28;20037;-59
2022/01/08 02:53:21;;;;;;;15.40;10.45;;;;;;;2.78;62.48;101264.72;5032893;28;20119;-59
2022/01/08 02:55:51;;;;;;;15.15;11.32;;;;;;;2.75;62.53;101262.19;5034068;28;20045;-59
2022/01/08 02:58:18;;;;;;;18.58;11.35;;;;;;;2.70;62.41;101264.00;5033916;28;20049;-60
2022/01/08 03:00:45;;;;;;;19.05;10.43;;;;;;;2.65;62.35;101277.00;5033927;28;20045;-59
2022/01/08 03:03:12;;;;;;;17.30;10.70;;;;;;;2.66;62.22;101280.47;5033977;28;20522;-59
2022/01/08 03:05:39;;;;;;;18.25;10.18;;;;;;;2.58;62.30;101281.44;5033347;28;20498;-59
2022/01/08 03:08:06;;;;;;;16.50;10.90;;;;;;;2.55;62.10;101281.50;5032479;28;20065;-59
2022/01/08 03:10:32;;;;;;;17.77;11.20;;;;;;;2.57;61.97;101274.53;5033838;28;20049;-59
2022/01/08 03:12:59;;;;;;;16.52;10.68;;;;;;;2.62;61.88;101279.66;5033747;28;20053;-59
2022/01/08 03:15:27;;;;;;;16.48;10.20;;;;;;;2.67;61.81;101266.66;5033672;28;20045;-59
2022/01/08 03:17:53;;;;;;;16.75;9.88;;;;;;;2.75;61.69;101255.25;5033695;28;20455;-59
2022/01/08 03:20:20;;;;;;;15.70;10.75;;;;;;;2.75;61.65;101255.25;5033570;28;20103;-59
2022/01/08 03:22:47;;;;;;;15.52;10.63;;;;;;;2.73;62.08;101261.34;5032797;28;20049;-59
2022/01/08 03:25:14;;;;;;;18.08;10.35;;;;;;;2.76;61.94;101259.56;5032564;28;20046;-59
2022/01/08 03:27:41;;;;;;;18.30;11.07;;;;;;;2.76;62.05;101261.31;5033613;28;20071;-60
2022/01/08 03:30:11;;;;;;;16.27;10.95;;;;;;;2.73;62.08;101264.81;5033247;28;20049;-59
2022/01/08 03:32:38;;;;;;;16.60;9.48;;;;;;;2.69;62.32;101263.16;5033597;28;20045;-59
2022/01/08 03:35:05;;;;;;;13.40;9.30;;;;;;;2.67;62.10;101272.66;5032785;28;20511;-59
2022/01/08 03:37:32;;;;;;;16.17;10.50;;;;;;;2.63;62.46;101268.41;5033353;28;20046;-59
2022/01/08 03:39:58;;;;;;;15.93;10.15;;;;;;;2.57;62.50;101268.50;5033385;28;20046;-59
2022/01/08 03:42:25;;;;;;;16.77;9.85;;;;;;;2.57;62.44;101269.34;5032074;28;20091;-59
2022/01/08 03:44:52;;;;;;;14.73;9.40;;;;;;;2.56;62.29;101266.78;5033281;28;20095;-59
2022/01/08 03:48:07;;;;;;;14.38;9.82;;;;;;;2.51;62.34;101266.00;5032738;28;20042;-59
2022/01/08 03:50:09;;;;;;;15.15;10.05;;;;;;;2.50;62.35;101257.38;5027347;28;20072;-58
2022/01/08 03:52:35;;;;;;;16.05;10.52;;;;;;;2.51;62.29;101255.63;5032990;28;20510;-59
2022/01/08 03:55:02;;;;;;;15.90;9.68;;;;;;;2.47;62.32;101251.38;5033083;28;20050;-59
2022/01/08 03:57:29;;;;;;;14.73;10.70;;;;;;;2.44;62.16;101258.31;5032850;28;20379;-59
2022/01/08 03:59:56;;;;;;;15.13;9.95;;;;;;;2.41;62.38;101254.91;5032036;28;20045;-59
2022/01/08 04:02:22;;;;;;;15.65;10.48;;;;;;;2.40;62.33;101255.78;5030841;28;20053;-58
2022/01/08 04:04:49;;;;;;;16.08;10.55;;;;;;;2.38;62.23;101263.59;5028670;28;20045;-59
2022/01/08 04:07:16;;;;;;;14.68;9.38;;;;;;;2.40;62.14;101258.38;5028800;28;20056;-61
2022/01/08 04:09:44;;;;;;;16.08;9.73;;;;;;;2.41;62.16;101250.59;5015817;28;20132;-60
2022/01/08 04:12:16;;;;;;;14.35;10.20;;;;;;;2.43;62.16;101247.97;5029205;28;20403;-59
2022/01/08 04:15:03;;;;;;;16.50;10.25;;;;;;;2.43;62.17;101246.25;5029092;28;20057;-58
2022/01/08 04:17:30;;;;;;;15.90;9.93;;;;;;;2.43;62.20;101254.00;5029800;28;20049;-59
2022/01/08 04:19:57;;;;;;;13.45;10.15;;;;;;;2.39;62.12;101254.09;5029483;28;20049;-59
2022/01/08 04:22:25;;;;;;;14.00;9.38;;;;;;;2.36;62.26;101244.63;5029174;28;20111;-59
2022/01/08 04:24:51;;;;;;;13.60;9.27;;;;;;;2.37;62.30;101245.47;5029021;28;20095;-58
2022/01/08 04:27:19;;;;;;;14.45;9.73;;;;;;;2.37;62.38;101248.91;5029200;28;20096;-58
2022/01/08 04:29:46;;;;;;;15.60;9.60;;;;;;;2.32;62.46;101250.72;5029191;28;20106;-59
2022/01/08 04:32:12;;;;;;;16.05;9.25;;;;;;;2.30;62.37;101249.91;5028122;28;20046;-59
2022/01/08 04:34:39;;;;;;;14.90;9.43;;;;;;;2.27;62.26;101253.38;5027888;28;20049;-59
2022/01/08 04:37:06;;;;;;;15.25;9.73;;;;;;;2.26;62.33;101261.16;5028878;28;20072;-59
2022/01/08 04:39:33;;;;;;;14.98;10.05;;;;;;;2.19;62.38;101265.56;5028841;28;20088;-59
2022/01/08 04:41:59;;;;;;;16.83;10.45;;;;;;;2.18;62.07;101258.66;5029031;28;20049;-61
2022/01/08 04:44:26;;;;;;;15.88;9.77;;;;;;;2.10;62.26;101268.28;5028850;28;20049;-60
2022/01/08 04:46:53;;;;;;;14.43;9.45;;;;;;;2.05;61.77;101268.34;5027727;28;20068;-59
2022/01/08 04:49:19;;;;;;;16.38;10.40;;;;;;;2.07;61.97;101276.06;5028735;28;20060;-59
2022/01/08 04:51:46;;;;;;;13.18;9.38;;;;;;;2.04;61.98;101268.38;5028580;28;20037;-59
2022/01/08 04:54:13;;;;;;;15.98;9.45;;;;;;;2.01;61.76;101264.09;5028541;28;20107;-58
2022/01/08 04:56:40;;;;;;;15.38;9.60;;;;;;;2.03;61.66;101262.34;5028724;28;20049;-58
2022/01/08 04:59:06;;;;;;;13.52;9.35;;;;;;;2.08;61.58;101267.44;5028603;28;20430;-59
2022/01/08 05:01:33;;;;;;;13.95;9.73;;;;;;;2.03;61.77;101270.09;5028319;28;20041;-59
2022/01/08 05:04:00;;;;;;;17.40;8.95;;;;;;;2.00;61.73;101264.94;5027681;28;20521;-58
2022/01/08 05:06:27;;;;;;;14.95;9.35;;;;;;;2.03;61.78;101257.16;5028452;28;20049;-59
2022/01/08 05:08:54;;;;;;;13.57;8.88;;;;;;;2.09;61.76;101258.81;5028646;28;20057;-59
2022/01/08 05:11:20;;;;;;;13.90;8.70;;;;;;;2.11;61.73;101262.25;5028288;28;20045;-58
2022/01/08 05:13:47;;;;;;;11.93;8.45;;;;;;;2.12;61.60;101259.63;5028596;28;20046;-59
2022/01/08 05:16:14;;;;;;;16.85;9.80;;;;;;;2.12;61.59;101251.84;5028550;28;20042;-59
2022/01/08 05:18:41;;;;;;;13.50;9.32;;;;;;;2.16;61.66;101246.63;5027463;28;20045;-59
2022/01/08 05:21:14;;;;;;;12.77;8.57;;;;;;;2.16;61.78;101244.91;5028388;28;20049;-58
2022/01/08 05:23:41;;;;;;;11.85;8.70;;;;;;;2.16;61.54;101239.72;5028498;28;20411;-59
2022/01/08 05:26:07;;;;;;;13.32;9.52;;;;;;;2.17;61.84;101246.63;5028382;28;20046;-59
2022/01/08 05:28:34;;;;;;;14.38;9.50;;;;;;;2.15;61.74;101247.53;5028303;28;20057;-59
2022/01/08 05:31:01;;;;;;;14.50;9.15;;;;;;;2.15;61.88;101248.38;5028572;28;20041;-60
2022/01/08 05:33:28;;;;;;;15.32;9.98;;;;;;;2.16;61.89;101239.72;5027476;28;20438;-62
2022/01/08 05:35:54;;;;;;;11.93;9.00;;;;;;;2.17;61.98;101235.41;5028041;28;20047;-58
2022/01/08 05:38:21;;;;;;;13.70;8.85;;;;;;;2.10;62.17;101226.88;5028049;28;20471;-61
2022/01/08 05:40:48;;;;;;;13.57;9.48;;;;;;;2.07;62.45;101232.94;5016414;28;20062;-60
2022/01/08 05:43:14;;;;;;;11.10;7.72;;;;;;;2.07;62.30;101229.47;5027989;28;20042;-61
2022/01/08 05:45:41;;;;;;;12.77;8.65;;;;;;;2.06;62.52;101238.16;5028261;28;20046;-61
2022/01/08 05:48:09;;;;;;;13.13;9.18;;;;;;;2.02;62.79;101239.91;5031747;28;20061;-64
2022/01/08 05:50:35;;;;;;;16.88;8.68;;;;;;;2.01;62.50;101237.34;5030550;28;20045;-62
2022/01/08 05:53:02;;;;;;;13.50;8.80;;;;;;;1.99;62.78;101233.91;5031841;28;20043;-61
2022/01/08 05:55:29;;;;;;;14.82;9.40;;;;;;;2.05;62.52;101221.75;5031694;28;20061;-61
2022/01/08 05:57:56;;;;;;;19.73;12.13;;;;;;;2.05;62.56;101213.97;5032184;28;20045;-61
2022/01/08 06:00:23;;;;;;;18.15;11.23;;;;;;;2.04;62.59;101225.19;5031773;28;20050;-63
2022/01/08 06:02:50;;;;;;;24.10;14.10;;;;;;;2.01;62.53;101234.78;5031792;28;20049;-61
2022/01/08 06:05:17;;;;;;;71.40;29.42;;;;;;;2.00;62.81;101230.47;5031655;28;20056;-60
2022/01/08 06:07:50;;;;;;;77.75;32.70;;;;;;;2.01;62.89;101222.66;5030213;28;20049;-60
2022/01/08 06:10:19;;;;;;;37.35;18.05;;;;;;;1.94;62.95;101223.63;5031510;28;20084;-61
2022/01/08 06:12:47;;;;;;;19.58;11.35;;;;;;;1.90;62.79;101217.63;5031289;28;20049;-61
2022/01/08 06:15:14;;;;;;;21.05;12.00;;;;;;;1.89;62.92;101223.69;5031466;28;20045;-61
2022/01/08 06:17:41;;;;;;;25.15;12.50;;;;;;;1.92;62.74;101223.63;5031587;28;20052;-61
2022/01/08 06:20:08;;;;;;;22.02;11.85;;;;;;;1.87;62.93;101227.19;5031252;28;20049;-61
2022/01/08 06:22:35;;;;;;;17.35;10.80;;;;;;;1.85;62.73;101229.75;5031752;28;20053;-61
2022/01/08 06:25:01;;;;;;;22.83;12.02;;;;;;;1.89;62.81;101228.88;5029859;28;20049;-61
2022/01/08 06:27:28;;;;;;;22.08;11.10;;;;;;;1.86;62.72;101235.81;5031288;28;20045;-61
2022/01/08 06:29:55;;;;;;;15.50;9.60;;;;;;;1.79;62.76;101237.59;5031050;28;20557;-61
2022/01/08 06:32:21;;;;;;;16.92;9.65;;;;;;;1.75;62.82;101249.75;5031188;28;20099;-60
2022/01/08 06:34:48;;;;;;;16.85;9.70;;;;;;;1.68;62.68;101278.28;5031047;28;20058;-61
2022/01/08 06:37:15;;;;;;;13.00;8.15;;;;;;;1.66;62.54;101277.44;5030940;28;20050;-61
2022/01/08 06:39:42;;;;;;;13.07;8.43;;;;;;;1.65;62.43;101279.19;5031542;28;20045;-61
2022/01/08 06:42:08;;;;;;;14.60;8.70;;;;;;;1.66;62.40;101298.13;5029681;28;20038;-61
2022/01/08 06:44:35;;;;;;;14.13;8.95;;;;;;;1.63;62.20;101301.63;5030785;28;20525;-60
2022/01/08 06:47:02;;;;;;;11.93;8.15;;;;;;;1.67;61.84;101305.88;5030949;28;20046;-61
2022/01/08 06:49:29;;;;;;;13.07;8.50;;;;;;;1.64;61.85;101303.34;5031009;28;20119;-61
2022/01/08 06:51:55;;;;;;;14.68;8.63;;;;;;;1.65;61.94;101305.06;5030555;28;20053;-60
2022/01/08 06:54:22;;;;;;;12.73;8.27;;;;;;;1.63;61.84;101296.44;5030494;28;20046;-61
2022/01/08 06:56:49;;;;;;;15.25;8.55;;;;;;;1.58;61.77;101303.38;5030727;28;20049;-61
2022/01/08 06:59:15;;;;;;;13.15;8.30;;;;;;;1.60;61.71;101304.22;5026817;28;20049;-62
2022/01/08 07:01:42;;;;;;;16.15;8.55;;;;;;;1.57;61.84;101301.66;5030725;28;20041;-60
2022/01/08 07:04:09;;;;;;;11.77;8.60;;;;;;;1.58;61.74;101293.88;5030786;28;20055;-61
2022/01/08 07:06:35;;;;;;;13.50;8.63;;;;;;;1.64;61.52;101303.34;5030152;28;20072;-64
2022/01/08 07:09:03;;;;;;;11.77;8.48;;;;;;;1.61;61.96;101295.59;5030307;28;20053;-61
2022/01/08 07:11:29;;;;;;;12.40;8.05;;;;;;;1.61;61.77;101303.34;5030546;28;20400;-58
2022/01/08 07:13:56;;;;;;;13.15;8.70;;;;;;;1.61;62.00;101316.28;5030620;28;20045;-61
2022/01/08 07:16:22;;;;;;;15.23;9.50;;;;;;;1.66;61.66;101319.66;5029169;28;20531;-59
2022/01/08 07:18:49;;;;;;;12.13;9.00;;;;;;;1.68;61.74;101325.69;5030421;28;20045;-59
2022/01/08 07:21:16;;;;;;;15.23;9.23;;;;;;;1.72;61.82;101324.78;5030251;28;20128;-59
2022/01/08 07:23:42;;;;;;;15.02;9.13;;;;;;;1.78;61.54;101308.34;5030391;28;20041;-58
2022/01/08 07:26:09;;;;;;;15.00;8.95;;;;;;;1.90;61.41;101315.13;5030551;28;20049;-58
2022/01/08 07:28:37;;;;;;;24.85;15.05;;;;;;;1.99;61.19;101306.41;5030266;28;20050;-59
2022/01/08 07:31:04;;;;;;;21.42;11.48;;;;;;;2.19;60.67;101304.41;5029968;28;20140;-58
2022/01/08 07:33:31;;;;;;;17.52;11.57;;;;;;;2.37;60.30;101299.88;5029241;28;20057;-59
2022/01/08 07:35:58;;;;;;;13.98;9.07;;;;;;;2.50;60.12;101297.97;5030116;28;20099;-58
2022/01/08 07:38:24;;;;;;;16.98;9.52;;;;;;;2.52;60.08;101302.25;5029909;28;20053;-58
2022/01/08 07:40:52;;;;;;;11.55;8.90;;;;;;;2.57;60.12;101295.25;5029927;28;20114;-59
2022/01/08 07:43:20;;;;;;;12.65;8.55;;;;;;;2.61;60.29;101288.31;5029695;28;20115;-59
2022/01/08 07:45:47;;;;;;;16.92;11.52;;;;;;;2.70;60.31;101279.53;5029576;28;20049;-59
2022/01/08 07:48:14;;;;;;;16.98;12.18;;;;;;;2.74;60.17;101283.78;5029522;28;20056;-59
2022/01/08 07:50:42;;;;;;;19.08;11.70;;;;;;;2.77;60.47;101291.53;5028032;28;20041;-59
2022/01/08 07:53:09;;;;;;;16.00;12.05;;;;;;;2.73;60.49;101282.94;5029716;28;20079;-59
2022/01/08 07:55:36;;;;;;;16.17;10.77;;;;;;;2.74;60.53;101278.59;5029052;28;20037;-59
2022/01/08 07:58:03;;;;;;;14.73;10.65;;;;;;;2.72;60.72;101291.59;5029605;28;20047;-62
2022/01/08 08:00:30;;;;;;;18.65;10.52;;;;;;;2.74;60.77;101294.16;5029433;28;20052;-59
2022/01/08 08:02:56;;;;;;;13.68;10.35;;;;;;;2.78;60.69;101288.03;5029719;28;20037;-59
2022/01/08 08:05:23;;;;;;;18.05;10.85;;;;;;;2.81;60.94;101272.47;5028395;28;20160;-59
2022/01/08 08:07:50;;;;;;;16.45;11.23;;;;;;;2.86;60.44;101275.81;5028357;28;20058;-59
2022/01/08 08:10:19;;;;;;;19.83;11.45;;;;;;;2.90;60.86;101274.88;5028960;28;20411;-59
2022/01/08 08:12:46;;;;;;;20.08;12.95;;;;;;;3.02;60.76;101272.97;5029120;28;20509;-59
2022/01/08 08:15:15;;;;;;;19.67;14.65;;;;;;;3.20;60.53;101283.06;5029073;28;20041;-60
2022/01/08 08:17:42;;;;;;;15.57;11.95;;;;;;;3.33;60.39;101280.25;5029468;28;20053;-59
2022/01/08 08:20:10;;;;;;;17.10;12.38;;;;;;;3.48;60.09;101277.38;5029221;28;20041;-60
2022/01/08 08:22:36;;;;;;;18.75;12.15;;;;;;;3.72;59.54;101278.66;5028585;28;20046;-59
2022/01/08 08:25:03;;;;;;;18.50;11.35;;;;;;;4.02;59.01;101286.69;5028929;28;20045;-60
2022/01/08 08:27:30;;;;;;;18.55;12.07;;;;;;;4.37;58.37;101282.50;5028912;28;20487;-60
2022/01/08 08:29:57;;;;;;;16.38;11.63;;;;;;;4.76;57.57;101272.97;5028869;28;20064;-60
2022/01/08 08:32:24;;;;;;;15.15;11.30;;;;;;;5.15;56.61;101275.47;5029034;28;20054;-60
2022/01/08 08:34:51;;;;;;;16.38;11.35;;;;;;;5.44;56.04;101269.50;5028800;28;20393;-59
2022/01/08 08:37:18;;;;;;;14.82;10.52;;;;;;;5.74;55.69;101280.00;5028513;28;20119;-59
2022/01/08 08:39:45;;;;;;;15.25;10.30;;;;;;;5.97;55.05;101276.72;5028045;28;20080;-59
2022/01/08 08:42:11;;;;;;;15.70;10.75;;;;;;;6.27;54.61;101268.97;5028432;28;20053;-60
2022/01/08 08:44:38;;;;;;;18.25;11.65;;;;;;;6.50;54.05;101263.03;5029036;28;20111;-59
2022/01/08 08:47:06;;;;;;;28.40;13.30;;;;;;;6.73;53.62;101277.09;5028498;28;20107;-59
2022/01/08 08:49:33;;;;;;;17.80;11.20;;;;;;;6.94;53.51;101266.88;5028772;28;20418;-59
2022/01/08 08:52:00;;;;;;;15.95;11.25;;;;;;;7.15;52.74;101275.75;5028476;28;20046;-60
2022/01/08 08:54:27;;;;;;;19.00;11.50;;;;;;;7.37;52.15;101260.19;5028177;28;20094;-60
2022/01/08 08:56:54;;;;;;;17.60;11.23;;;;;;;7.55;51.63;101258.69;5028486;28;20057;-60
2022/01/08 08:59:23;;;;;;;18.52;11.10;;;;;;;7.71;51.13;101258.13;5028369;28;20462;-61
2022/01/08 09:01:50;;;;;;;17.85;11.10;;;;;;;7.90;50.54;101264.38;5028508;28;20053;-61
2022/01/08 09:04:17;;;;;;;17.67;11.15;;;;;;;8.08;49.97;101259.38;5028335;28;20045;-59
2022/01/08 09:06:43;;;;;;;14.68;11.50;;;;;;;8.23;49.29;101261.41;5028457;28;20080;-60
2022/01/08 09:09:10;;;;;;;15.93;10.68;;;;;;;8.42;48.63;101264.16;5028186;28;20071;-60
2022/01/08 09:11:37;;;;;;;14.60;10.38;;;;;;;8.57;48.20;101264.50;5028032;28;20038;-60
2022/01/08 09:14:04;;;;;;;13.70;9.52;;;;;;;8.70;48.05;101251.75;5028339;28;20083;-59
2022/01/08 09:16:30;;;;;;;16.20;10.18;;;;;;;8.85;47.43;101247.69;5024621;28;20100;-60
2022/01/08 09:18:58;;;;;;;69.55;43.88;;;;;;;8.99;46.89;101246.19;5028619;28;20049;-61
2022/01/08 09:21:25;;;;;;;22.52;14.52;;;;;;;9.13;46.54;101245.59;5029383;28;20506;-61
2022/01/08 09:23:52;;;;;;;17.27;12.07;;;;;;;9.27;46.01;101245.03;5032764;28;20111;-61
2022/01/08 09:26:19;;;;;;;45.20;30.92;;;;;;;9.40;45.52;101249.72;5032624;28;20053;-60
2022/01/08 09:28:46;;;;;;;13.27;9.88;;;;;;;9.48;45.23;101251.09;5031162;28;20060;-60
2022/01/08 09:31:13;;;;;;;11.57;8.45;;;;;;;9.63;44.54;101243.47;5032269;28;20049;-59
2022/01/08 09:33:40;;;;;;;9.93;7.50;;;;;;;9.73;43.59;101241.31;5032423;28;20120;-60
2022/01/08 09:36:06;;;;;;;23.50;17.30;;;;;;;9.82;42.49;101250.53;5031928;28;20053;-60
2022/01/08 09:38:33;;;;;;;10.88;8.02;;;;;;;9.92;41.80;101246.56;5032440;28;20084;-60
2022/01/08 09:41:00;;;;;;;14.82;8.93;;;;;;;10.04;41.02;101243.34;5032223;28;20045;-60
2022/01/08 09:43:26;;;;;;;22.33;13.13;;;;;;;10.15;40.44;101244.66;5032128;28;20104;-60
2022/01/08 09:45:53;;;;;;;30.50;15.80;;;;;;;10.03;40.43;101241.66;5031028;28;20041;-60
2022/01/08 09:48:20;;;;;;;15.50;10.70;;;;;;;10.02;40.13;101242.59;5035911;28;20115;-60
2022/01/08 09:50:47;;;;;;;56.72;32.35;;;;;;;10.07;40.12;101242.38;5031790;28;20121;-59
2022/01/08 09:53:13;;;;;;;40.20;27.38;;;;;;;10.09;40.05;101241.38;5031700;28;20049;-59
2022/01/08 09:55:40;;;;;;;62.60;35.08;;;;;;;10.18;39.64;101247.09;5031810;28;20048;-59
2022/01/08 09:58:07;;;;;;;27.42;17.13;;;;;;;10.19;39.56;101241.78;5031616;28;20103;-59
2022/01/08 10:00:35;;;;;;;14.35;10.98;;;;;;;10.24;39.47;101242.41;5031598;28;20048;-59
2022/01/08 10:03:14;;;;;;;18.90;12.45;;;;;;;10.28;39.25;101245.75;5031700;28;20044;-58
2022/01/08 10:05:55;;;;;;;23.00;15.05;;;;;;;10.36;39.16;101246.28;5030457;28;20518;-59
2022/01/08 10:08:42;;;;;;;110.53;58.28;;;;;;;10.37;39.41;101247.97;5031315;28;20111;-59
2022/01/08 10:11:09;;;;;;;60.00;33.03;;;;;;;10.51;39.55;101238.59;5031494;28;20156;-62
2022/01/08 10:13:40;;;;;;;220.13;105.13;;;;;;;10.57;39.37;101238.28;5031871;28;20049;-62
2022/01/08 10:19:18;;;;;;;103.47;51.15;;;;;;;10.72;39.30;101228.81;5031216;28;20088;-59
2022/01/08 10:21:45;;;;;;;18.00;12.20;;;;;;;10.81;39.15;101232.78;5030155;28;20049;-58
2022/01/08 10:24:18;;;;;;;80.18;44.45;;;;;;;10.84;39.08;101227.34;5031968;28;20045;-58
2022/01/08 10:26:45;;;;;;;257.05;115.70;;;;;;;10.87;39.20;101235.06;5032562;28;20501;-62
2022/01/08 10:29:14;;;;;;;393.65;163.60;;;;;;;11.00;38.98;101224.81;5030832;28;20498;-58
2022/01/08 10:31:46;;;;;;;107.35;49.65;;;;;;;10.92;39.28;101215.53;5030547;28;20072;-60
2022/01/08 10:34:21;;;;;;;45.47;26.20;;;;;;;11.01;38.98;101222.09;5027403;28;20045;-59
2022/01/08 10:36:59;;;;;;;29.45;17.17;;;;;;;11.00;39.06;101219.56;5027742;28;20045;-57
2022/01/08 10:39:29;;;;;;;26.20;17.45;;;;;;;11.09;39.24;101229.59;5026132;28;20052;-58
2022/01/08 10:41:58;;;;;;;15.35;11.65;;;;;;;11.15;38.99;101228.41;5027933;28;20705;-59
2022/01/08 10:44:30;;;;;;;28.70;17.60;;;;;;;11.05;39.45;101228.91;5027232;28;20049;-58
2022/01/08 10:46:59;;;;;;;23.00;16.05;;;;;;;11.15;39.33;101228.41;5031051;28;20046;-59
2022/01/08 10:49:42;;;;;;;31.17;17.92;;;;;;;11.11;39.56;101222.50;5030585;28;20568;-58
2022/01/08 10:52:18;;;;;;;66.93;37.55;;;;;;;11.15;39.61;101225.78;5027863;28;20049;-65
2022/01/08 10:54:48;;;;;;;45.80;29.23;;;;;;;11.11;39.79;101218.09;5030620;28;20123;-59
2022/01/08 10:57:15;;;;;;;41.40;24.67;;;;;;;10.93;40.30;101214.63;5029677;28;20045;-62
2022/01/08 10:59:43;;;;;;;104.13;53.25;;;;;;;10.83;40.57;101207.28;5041441;28;20037;-59
2022/01/08 11:02:11;;;;;;;102.40;58.85;;;;;;;10.56;41.08;101207.72;5036688;28;20407;-59
2022/01/08 11:04:42;;;;;;;39.38;28.50;;;;;;;10.44;41.33;101206.56;5027735;28;20462;-62
2022/01/08 11:07:18;;;;;;;39.35;21.25;;;;;;;10.70;41.56;101196.53;5030313;28;20045;-59
2022/01/08 11:09:46;;;;;;;32.15;17.65;;;;;;;11.27;42.46;101188.38;5028809;28;20061;-62
2022/01/08 11:12:31;;;;;;;25.40;17.33;;;;;;;11.15;43.60;101196.91;5023401;28;20049;-58
2022/01/08 11:17:44;;;;;;;33.97;22.92;;;;;;;10.08;45.35;101187.25;5030363;28;20103;-61
2022/01/08 11:20:12;;;;;;;106.80;54.63;;;;;;;9.80;45.46;101182.41;5029566;28;20057;-61
2022/01/08 11:22:45;;;;;;;28.33;18.75;;;;;;;9.45;45.98;101187.50;5030542;28;20041;-61
2022/01/08 11:25:18;;;;;;;22.63;13.98;;;;;;;9.27;46.23;101183.94;5029788;28;20053;-62
2022/01/08 11:28:01;;;;;;;20.55;14.95;;;;;;;9.10;46.32;101177.69;5030004;28;20061;-60
2022/01/08 11:30:33;;;;;;;19.70;14.55;;;;;;;8.96;46.52;101167.81;5028636;28;20407;-60
2022/01/08 11:33:06;;;;;;;74.50;44.42;;;;;;;8.77;46.79;101162.50;5028745;28;20091;-58
2022/01/08 11:35:41;;;;;;;22.27;15.70;;;;;;;8.71;46.96;101156.66;5028973;28;20038;-59
2022/01/08 11:38:11;;;;;;;89.95;46.05;;;;;;;8.57;47.26;101159.84;5033649;28;20045;-60
2022/01/08 11:40:43;;;;;;;44.05;27.88;;;;;;;8.58;47.04;101158.94;5029761;28;20045;-60
2022/01/08 11:43:15;;;;;;;20.58;14.65;;;;;;;8.57;47.26;101152.88;5029668;28;20461;-66
2022/01/08 11:45:47;;;;;;;43.60;30.90;;;;;;;8.53;47.34;101156.50;5029175;28;20045;-61
2022/01/08 11:48:18;;;;;;;22.90;18.70;;;;;;;8.54;47.22;101146.91;5029173;28;20049;-65